createdAt,value
2022-08-03T00:01:24.121Z,69.17
2022-08-03T00:04:34.158Z,69.16
2022-08-03T00:07:41.289Z,69.27
2022-08-03T00:10:47.824Z,69.28
2022-08-03T00:13:54.174Z,69.40
2022-08-03T00:17:00.787Z,69.43
2022-08-03T00:20:07.867Z,69.73
2022-08-03T00:23:13.916Z,69.74
2022-08-03T00:26:18.306Z,69.70
2022-08-03T00:29:24.427Z,69.51
2022-08-03T00:32:30.503Z,69.58
2022-08-03T00:35:51.056Z,69.75
2022-08-03T00:38:57.586Z,69.72
2022-08-03T00:42:06.982Z,69.72
2022-08-03T00:45:13.622Z,69.62
2022-08-03T00:48:33.433Z,69.75
2022-08-03T00:51:39.966Z,69.94
2022-08-03T00:54:44.643Z,69.88
2022-08-03T00:57:51.348Z,69.92
2022-08-03T01:00:57.624Z,69.92
2022-08-03T01:04:03.934Z,69.92
2022-08-03T01:07:18.322Z,69.93
2022-08-03T01:10:37.090Z,69.97
2022-08-03T01:14:03.589Z,70.01
2022-08-03T01:17:21.862Z,70.09
2022-08-03T01:20:34.016Z,70.06
2022-08-03T01:23:56.732Z,70.13
2022-08-03T01:27:14.191Z,70.07
2022-08-03T01:30:20.486Z,70.16
2022-08-03T01:33:35.759Z,70.05
2022-08-03T01:36:50.230Z,70.17
2022-08-03T01:39:57.783Z,70.23
2022-08-03T01:43:07.849Z,70.20
2022-08-03T01:46:16.071Z,70.32
2022-08-03T01:49:22.385Z,70.17
2022-08-03T01:52:30.340Z,70.37
2022-08-03T01:55:39.262Z,70.46
2022-08-03T01:58:47.650Z,70.44
2022-08-03T02:02:28.813Z,70.44
2022-08-03T02:05:22.227Z,70.61
2022-08-03T02:08:30.310Z,70.50
2022-08-03T02:11:39.002Z,70.57
2022-08-03T02:14:47.018Z,70.50
2022-08-03T02:17:54.689Z,70.69
2022-08-03T02:21:02.443Z,70.63
2022-08-03T02:24:17.134Z,70.63
2022-08-03T02:27:30.811Z,70.61
2022-08-03T02:30:39.735Z,70.64
2022-08-03T02:33:50.745Z,70.67
2022-08-03T02:37:00.413Z,70.76
2022-08-03T02:40:10.822Z,70.73
2022-08-03T02:43:22.956Z,70.77
2022-08-03T02:46:48.413Z,70.69
2022-08-03T02:49:56.085Z,70.82
2022-08-03T02:53:03.112Z,70.85
2022-08-03T02:56:11.003Z,70.85
2022-08-03T02:59:19.527Z,70.82
2022-08-03T03:02:26.491Z,70.91
2022-08-03T03:05:52.729Z,71.10
2022-08-03T03:09:00.754Z,71.06
2022-08-03T03:12:09.048Z,71.06
2022-08-03T03:15:15.403Z,71.15
2022-08-03T03:18:23.211Z,71.11
2022-08-03T03:21:32.187Z,71.17
2022-08-03T03:24:39.542Z,71.19
2022-08-03T03:27:50.790Z,71.22
2022-08-03T03:30:57.268Z,71.27
2022-08-03T03:34:04.032Z,71.36
2022-08-03T03:37:10.279Z,71.38
2022-08-03T03:40:17.014Z,71.50
2022-08-03T03:43:24.474Z,71.40
2022-08-03T03:46:31.326Z,71.51
2022-08-03T03:49:37.602Z,71.71
2022-08-03T03:52:43.771Z,71.63
2022-08-03T03:55:59.540Z,71.72
2022-08-03T03:59:08.966Z,71.96
2022-08-03T04:02:15.377Z,71.95
2022-08-03T04:05:42.878Z,72.03
2022-08-03T04:09:14.732Z,72.11
2022-08-03T04:12:24.305Z,72.19
2022-08-03T04:15:32.784Z,72.24
2022-08-03T04:18:42.826Z,72.29
2022-08-03T04:21:53.167Z,72.46
2022-08-03T04:25:08.519Z,72.48
2022-08-03T04:28:30.708Z,72.68
2022-08-03T04:31:39.825Z,72.85
2022-08-03T04:34:46.606Z,73.07
2022-08-03T04:37:56.609Z,73.32
2022-08-03T04:41:03.428Z,73.37
2022-08-03T04:44:10.586Z,73.54
2022-08-03T04:47:17.265Z,73.60
2022-08-03T04:50:25.002Z,73.60
2022-08-03T04:53:31.761Z,73.23
2022-08-03T04:56:40.738Z,73.11
2022-08-03T04:59:49.410Z,73.22
2022-08-03T05:02:55.938Z,73.78
2022-08-03T05:06:11.077Z,74.24
2022-08-03T05:09:16.245Z,74.25
2022-08-03T05:12:42.695Z,74.33
2022-08-03T05:15:49.393Z,73.87
2022-08-03T05:18:55.558Z,74.04
2022-08-03T05:22:02.056Z,73.86
2022-08-03T05:25:09.174Z,73.45
2022-08-03T05:28:23.282Z,73.10
2022-08-03T05:31:29.422Z,72.95
2022-08-03T05:34:35.604Z,73.14
2022-08-03T05:37:42.438Z,72.91
2022-08-03T05:41:22.580Z,72.34
2022-08-03T05:44:27.363Z,72.32
2022-08-03T05:47:33.506Z,72.40
2022-08-03T05:50:42.770Z,72.10
2022-08-03T05:53:49.351Z,72.37
2022-08-03T05:56:55.578Z,72.42
2022-08-03T06:00:01.852Z,72.27
2022-08-03T06:03:08.108Z,72.24
2022-08-03T06:06:14.679Z,72.06
2022-08-03T06:09:20.790Z,71.88
2022-08-03T06:12:29.112Z,71.86
2022-08-03T06:15:35.599Z,71.65
2022-08-03T06:18:41.936Z,71.44
2022-08-03T06:21:47.923Z,71.13
2022-08-03T06:24:54.754Z,71.11
2022-08-03T06:40:41.258Z,69.78
2022-08-03T06:44:02.913Z,68.83
2022-08-03T06:47:10.647Z,68.25
2022-08-03T06:50:19.045Z,67.98
2022-08-03T06:53:26.859Z,67.58
2022-08-03T06:56:33.042Z,67.42
2022-08-03T07:00:07.774Z,66.90
2022-08-03T07:03:05.684Z,66.50
2022-08-03T07:06:12.002Z,66.07
2022-08-03T07:09:18.125Z,65.91
2022-08-03T07:12:24.315Z,65.54
2022-08-03T07:15:55.111Z,65.22
2022-08-03T07:18:57.216Z,64.79
2022-08-03T07:22:04.294Z,64.50
2022-08-03T07:25:12.019Z,64.02
2022-08-03T07:28:18.224Z,63.76
2022-08-03T07:31:24.455Z,63.53
2022-08-03T07:34:30.762Z,63.13
2022-08-03T07:37:37.072Z,62.88
2022-08-03T07:40:46.305Z,62.51
2022-08-03T07:43:52.739Z,62.06
2022-08-03T07:46:58.919Z,61.59
2022-08-03T07:50:11.510Z,61.43
2022-08-03T07:53:17.877Z,61.04
2022-08-03T07:56:25.017Z,60.52
2022-08-03T07:59:31.103Z,60.16
2022-08-03T08:02:57.248Z,59.76
2022-08-03T08:06:03.410Z,59.64
2022-08-03T08:09:09.817Z,59.27
2022-08-03T08:12:16.490Z,58.75
2022-08-03T08:15:23.005Z,58.60
2022-08-03T08:18:29.817Z,58.21
2022-08-03T08:21:53.673Z,57.94
2022-08-03T08:25:02.329Z,57.99
2022-08-03T08:28:30.807Z,57.54
2022-08-03T08:31:34.833Z,57.00
2022-08-03T08:34:41.089Z,56.99
2022-08-03T08:37:51.237Z,56.70
2022-08-03T08:40:59.586Z,56.09
2022-08-03T08:44:08.297Z,55.42
2022-08-03T08:47:15.577Z,55.41
2022-08-03T08:50:27.953Z,55.32
2022-08-03T08:53:37.419Z,54.95
2022-08-03T08:56:45.045Z,54.58
2022-08-03T08:59:54.528Z,54.63
2022-08-03T09:03:03.973Z,54.19
2022-08-03T09:06:10.319Z,53.98
2022-08-03T09:10:08.134Z,53.72
2022-08-03T09:12:46.511Z,53.32
2022-08-03T09:16:11.448Z,53.14
2022-08-03T09:19:17.740Z,53.00
2022-08-03T09:22:23.933Z,52.80
2022-08-03T09:25:35.251Z,52.67
2022-08-03T09:29:00.518Z,52.29
2022-08-03T09:32:08.528Z,52.21
2022-08-03T09:35:16.058Z,52.12
2022-08-03T09:38:24.340Z,51.37
2022-08-03T09:41:30.494Z,51.06
2022-08-03T09:44:39.989Z,51.36
2022-08-03T09:47:46.175Z,51.04
2022-08-03T09:50:58.677Z,50.83
2022-08-03T09:54:29.390Z,50.69
2022-08-03T09:57:35.643Z,50.44
2022-08-03T10:00:56.954Z,50.53
2022-08-03T10:04:05.196Z,50.07
2022-08-03T10:07:12.239Z,50.09
2022-08-03T10:10:30.226Z,49.85
2022-08-03T10:13:39.386Z,49.51
2022-08-03T10:16:46.284Z,49.99
2022-08-03T10:19:52.687Z,49.88
2022-08-03T10:22:59.990Z,49.62
2022-08-03T10:26:09.039Z,49.11
2022-08-03T10:29:20.266Z,48.86
2022-08-03T10:32:31.798Z,48.60
2022-08-03T10:35:41.305Z,48.63
2022-08-03T10:38:53.415Z,48.66
2022-08-03T10:42:02.875Z,48.41
2022-08-03T10:45:16.480Z,48.15
2022-08-03T10:48:23.711Z,48.04
2022-08-03T10:51:32.335Z,48.23
2022-08-03T10:55:07.507Z,47.93
2022-08-03T10:58:25.202Z,47.43
2022-08-03T11:02:00.850Z,47.29
2022-08-03T11:05:30.252Z,47.13
2022-08-03T11:08:36.993Z,47.03
2022-08-03T11:11:44.453Z,47.09
2022-08-03T11:14:51.834Z,47.19
2022-08-03T11:18:11.717Z,47.13
2022-08-03T11:21:18.071Z,46.82
2022-08-03T11:25:00.695Z,46.88
2022-08-03T11:28:33.770Z,46.70
2022-08-03T11:31:59.311Z,46.81
2022-08-03T11:35:13.371Z,46.61
2022-08-03T11:38:24.766Z,46.57
2022-08-03T11:41:44.852Z,45.94
2022-08-03T11:44:52.450Z,45.96
2022-08-03T11:47:59.491Z,45.74
2022-08-03T11:51:07.236Z,45.57
2022-08-03T11:54:13.611Z,45.54
2022-08-03T11:59:16.469Z,45.41
2022-08-03T12:01:07.888Z,45.53
2022-08-03T12:04:13.782Z,44.79
2022-08-03T12:07:24.978Z,44.60
2022-08-03T12:10:51.711Z,44.45
2022-08-03T12:14:50.041Z,44.17
2022-08-03T12:17:24.305Z,44.42
2022-08-03T12:20:35.398Z,43.97
2022-08-03T12:23:41.882Z,44.09
2022-08-03T12:26:59.303Z,43.95
2022-08-03T12:30:07.180Z,43.70
2022-08-03T12:33:29.906Z,43.90
2022-08-03T12:36:38.301Z,44.06
2022-08-03T12:40:02.743Z,43.78
2022-08-03T12:43:17.455Z,44.00
2022-08-03T12:46:24.178Z,43.65
2022-08-03T12:49:30.721Z,43.58
2022-08-03T12:52:46.161Z,43.37
2022-08-03T12:56:06.065Z,43.51
2022-08-03T12:59:40.483Z,43.29
2022-08-03T13:02:56.357Z,43.25
2022-08-03T13:06:16.194Z,43.27
2022-08-03T13:09:22.615Z,42.94
2022-08-03T13:12:30.978Z,42.62
2022-08-03T13:15:47.651Z,42.99
2022-08-03T13:18:56.363Z,43.06
2022-08-03T13:22:04.704Z,43.05
2022-08-03T13:25:11.350Z,42.99
2022-08-03T13:28:17.810Z,42.89
2022-08-03T13:31:23.998Z,43.06
2022-08-03T13:34:32.515Z,42.53
2022-08-03T13:37:39.569Z,42.36
2022-08-03T13:40:46.101Z,42.54
2022-08-03T13:44:25.121Z,42.78
2022-08-03T13:47:23.212Z,42.36
2022-08-03T13:50:30.134Z,42.29
2022-08-03T14:07:30.699Z,41.39
2022-08-03T14:10:38.587Z,40.76
2022-08-03T14:13:44.786Z,40.95
2022-08-03T14:16:50.927Z,40.75
2022-08-03T14:20:02.430Z,40.40
2022-08-03T14:23:20.808Z,40.51
2022-08-03T14:26:27.993Z,40.31
2022-08-03T14:29:34.270Z,40.36
2022-08-03T14:32:40.611Z,40.45
2022-08-03T14:35:46.915Z,40.55
2022-08-03T14:38:53.116Z,40.24
2022-08-03T14:41:59.263Z,40.14
2022-08-03T14:45:09.566Z,40.15
2022-08-03T14:50:29.095Z,40.28
2022-08-03T14:51:54.144Z,40.37
2022-08-03T14:55:01.410Z,40.59
2022-08-03T14:58:19.598Z,40.36
2022-08-03T15:02:02.138Z,40.48
2022-08-03T15:04:53.716Z,40.24
2022-08-03T15:07:59.934Z,40.37
2022-08-03T15:11:06.379Z,40.55
2022-08-03T15:14:13.471Z,40.81
2022-08-03T15:17:21.257Z,41.11
2022-08-03T15:20:42.673Z,41.03
2022-08-03T15:23:50.419Z,41.09
2022-08-03T15:26:56.582Z,41.26
2022-08-03T15:30:10.129Z,41.62
2022-08-03T15:33:16.715Z,41.79
2022-08-03T15:36:22.991Z,41.75
2022-08-03T15:39:29.521Z,41.94
2022-08-03T15:42:36.308Z,42.02
2022-08-03T15:45:43.076Z,42.10
2022-08-03T15:48:49.670Z,42.39
2022-08-03T15:51:56.486Z,42.47
2022-08-03T15:55:02.652Z,42.77
2022-08-03T15:59:10.684Z,42.82
2022-08-03T16:01:35.014Z,43.11
2022-08-03T16:04:41.334Z,43.29
2022-08-03T16:08:02.880Z,43.40
2022-08-03T16:11:10.312Z,43.66
2022-08-03T16:14:32.444Z,43.91
2022-08-03T16:17:42.224Z,44.18
2022-08-03T16:20:48.734Z,44.14
2022-08-03T16:23:54.914Z,44.40
2022-08-03T16:27:02.443Z,44.43
2022-08-03T16:30:10.339Z,44.86
2022-08-03T16:33:18.018Z,44.83
2022-08-03T16:36:24.286Z,44.93
2022-08-03T16:39:30.471Z,45.18
2022-08-03T16:42:38.826Z,45.52
2022-08-03T16:45:45.087Z,45.64
2022-08-03T16:48:51.154Z,45.86
2022-08-03T16:51:57.291Z,45.84
2022-08-03T16:55:05.806Z,46.22
2022-08-03T16:58:15.344Z,46.30
2022-08-03T17:01:25.008Z,46.28
2022-08-03T17:04:41.834Z,46.64
2022-08-03T17:07:53.859Z,46.93
2022-08-03T17:11:00.303Z,47.07
2022-08-03T17:14:09.605Z,47.23
2022-08-03T17:17:21.766Z,47.23
2022-08-03T17:20:29.935Z,47.41
2022-08-03T17:23:46.316Z,47.90
2022-08-03T17:26:54.676Z,48.55
2022-08-03T17:30:07.955Z,49.00
2022-08-03T17:33:20.332Z,49.25
2022-08-03T17:36:41.877Z,49.64
2022-08-03T17:39:59.494Z,49.93
2022-08-03T17:44:14.048Z,50.20
2022-08-03T17:46:32.388Z,50.46
2022-08-03T17:49:40.058Z,50.70
2022-08-03T17:52:50.343Z,50.98
2022-08-03T17:56:42.431Z,51.29
2022-08-03T17:59:53.001Z,51.70
2022-08-03T18:03:18.494Z,51.93
2022-08-03T18:06:30.421Z,52.46
2022-08-03T18:10:04.807Z,52.41
2022-08-03T18:13:12.038Z,52.85
2022-08-03T18:16:26.099Z,53.03
2022-08-03T18:20:03.482Z,53.28
2022-08-03T18:23:04.690Z,53.52
2022-08-03T18:26:12.686Z,53.84
2022-08-03T18:29:20.204Z,54.03
2022-08-03T18:32:29.465Z,54.26
2022-08-03T18:35:53.388Z,54.66
2022-08-03T18:39:02.592Z,54.82
2022-08-03T18:42:09.384Z,54.99
2022-08-03T18:45:57.190Z,55.32
2022-08-03T18:49:08.059Z,55.37
2022-08-03T18:52:27.595Z,55.69
2022-08-03T18:55:36.666Z,55.93
2022-08-03T19:02:30.444Z,56.33
2022-08-03T19:05:56.243Z,56.68
2022-08-03T19:09:16.968Z,56.83
2022-08-03T19:12:31.070Z,57.04
2022-08-03T19:15:51.279Z,57.15
2022-08-03T19:19:00.634Z,57.33
2022-08-03T19:22:10.519Z,57.44
2022-08-03T19:25:17.813Z,57.61
2022-08-03T19:28:29.985Z,57.88
2022-08-03T19:31:40.642Z,57.96
2022-08-03T19:35:13.210Z,58.22
2022-08-03T19:38:28.594Z,58.37
2022-08-03T19:41:42.104Z,58.49
2022-08-03T19:44:56.623Z,58.70
2022-08-03T19:48:09.952Z,58.84
2022-08-03T19:51:16.586Z,58.98
2022-08-03T19:54:29.699Z,59.12
2022-08-03T19:57:42.249Z,59.18
2022-08-03T20:00:49.773Z,59.27
2022-08-03T20:03:55.877Z,59.39
2022-08-03T20:07:03.014Z,59.56
2022-08-03T20:10:10.235Z,59.76
2022-08-03T20:13:19.519Z,59.78
2022-08-03T20:16:26.145Z,59.99
2022-08-03T20:19:32.456Z,60.19
2022-08-03T20:22:43.204Z,60.31
2022-08-03T20:25:58.611Z,60.46
2022-08-03T20:29:10.225Z,60.59
2022-08-03T20:32:17.461Z,60.74
2022-08-03T20:35:23.804Z,60.96
2022-08-03T20:38:30.622Z,61.02
2022-08-03T20:41:37.326Z,61.25
2022-08-03T20:44:43.622Z,61.37
2022-08-03T20:48:05.773Z,61.63
2022-08-03T20:51:19.357Z,61.64
2022-08-03T20:54:29.325Z,61.75
2022-08-03T20:57:37.638Z,61.77
2022-08-03T21:00:47.942Z,61.94
2022-08-03T21:03:57.504Z,62.14
2022-08-03T21:07:09.804Z,62.26
2022-08-03T21:10:28.413Z,62.31
2022-08-03T21:13:08.888Z,56.10
2022-08-03T21:13:40.543Z,62.39
2022-08-03T21:16:51.072Z,62.58
2022-08-03T21:19:58.551Z,62.73
2022-08-03T21:23:04.789Z,62.89
2022-08-03T21:26:12.271Z,63.13
2022-08-03T21:29:18.913Z,62.95
2022-08-03T21:32:32.407Z,63.12
2022-08-03T21:35:39.444Z,63.24
2022-08-03T21:38:56.877Z,63.09
2022-08-03T21:42:03.659Z,63.38
2022-08-03T21:45:17.170Z,63.52
2022-08-03T21:48:25.662Z,63.56
2022-08-03T21:51:34.305Z,63.55
2022-08-03T21:54:42.548Z,63.62
2022-08-03T21:57:54.846Z,63.63
2022-08-03T22:01:04.402Z,63.77
2022-08-03T22:04:11.988Z,63.72
2022-08-03T22:07:38.280Z,64.01
2022-08-03T22:10:46.947Z,64.09
2022-08-03T22:13:53.323Z,64.29
2022-08-03T22:16:59.722Z,64.31
2022-08-03T22:20:08.802Z,64.42
2022-08-03T22:23:21.173Z,64.49
2022-08-03T22:26:32.283Z,64.56
2022-08-03T22:29:43.504Z,64.66
2022-08-03T22:32:50.784Z,64.58
2022-08-03T22:36:01.556Z,64.70
2022-08-03T22:39:08.035Z,64.70
2022-08-03T22:42:15.143Z,64.83
2022-08-03T22:46:06.981Z,64.94
2022-08-03T22:48:49.690Z,65.03
2022-08-03T22:51:57.327Z,64.99
2022-08-03T22:55:06.577Z,65.21
2022-08-03T22:58:15.583Z,65.16
2022-08-03T23:01:24.725Z,65.28
2022-08-03T23:04:33.094Z,65.25
2022-08-03T23:07:40.870Z,65.29
2022-08-03T23:10:49.987Z,65.44
2022-08-03T23:13:57.870Z,65.53
2022-08-03T23:17:06.199Z,65.62
2022-08-03T23:20:14.230Z,65.68
2022-08-03T23:23:21.754Z,65.75
2022-08-03T23:26:31.634Z,65.71
2022-08-03T23:29:39.419Z,65.80
2022-08-03T23:32:47.017Z,65.88
2022-08-03T23:36:28.619Z,65.94
2022-08-03T23:39:35.081Z,66.10
2022-08-03T23:42:42.496Z,66.05
2022-08-03T23:45:50.663Z,66.10
2022-08-03T23:48:58.119Z,66.18
2022-08-03T23:52:09.926Z,66.18
2022-08-03T23:55:23.482Z,66.17
2022-08-03T23:58:43.994Z,66.24
